sensor_id;sensor_type;location;lat;lon;timestamp;P1;durP1;ratioP1;P2;durP2;ratioP2
30462;SDS011;17256;43.618;25.336;2023-07-02T00:05:28;6.07;;;4.90;;
30462;SDS011;17256;43.618;25.336;2023-07-02T00:07:56;5.27;;;4.77;;
30462;SDS011;17256;43.618;25.336;2023-07-02T00:17:45;5.30;;;4.83;;
30462;SDS011;17256;43.618;25.336;2023-07-02T00:27:29;8.37;;;4.83;;
30462;SDS011;17256;43.618;25.336;2023-07-02T00:30:00;5.20;;;4.80;;
30462;SDS011;17256;43.618;25.336;2023-07-02T00:35:53;5.50;;;4.90;;
30462;SDS011;17256;43.618;25.336;2023-07-02T00:38:26;9.03;;;5.40;;
30462;SDS011;17256;43.618;25.336;2023-07-02T00:40:55;6.47;;;5.67;;
30462;SDS011;17256;43.618;25.336;2023-07-02T00:43:25;7.13;;;5.53;;
30462;SDS011;17256;43.618;25.336;2023-07-02T00:46:18;6.70;;;5.20;;
30462;SDS011;17256;43.618;25.336;2023-07-02T00:48:54;6.70;;;6.00;;
30462;SDS011;17256;43.618;25.336;2023-07-02T00:51:23;6.37;;;5.13;;
30462;SDS011;17256;43.618;25.336;2023-07-02T00:53:58;6.80;;;6.10;;
30462;SDS011;17256;43.618;25.336;2023-07-02T00:56:52;6.77;;;5.13;;
30462;SDS011;17256;43.618;25.336;2023-07-02T00:59:19;6.23;;;5.57;;
30462;SDS011;17256;43.618;25.336;2023-07-02T01:02:04;7.83;;;5.17;;
30462;SDS011;17256;43.618;25.336;2023-07-02T01:04:35;5.90;;;5.30;;
30462;SDS011;17256;43.618;25.336;2023-07-02T01:07:15;12.17;;;7.17;;
30462;SDS011;17256;43.618;25.336;2023-07-02T01:12:40;5.93;;;5.43;;
30462;SDS011;17256;43.618;25.336;2023-07-02T01:15:12;6.43;;;5.43;;
30462;SDS011;17256;43.618;25.336;2023-07-02T01:17:45;10.27;;;5.50;;
30462;SDS011;17256;43.618;25.336;2023-07-02T01:20:12;6.37;;;5.47;;
30462;SDS011;17256;43.618;25.336;2023-07-02T01:22:40;6.47;;;5.87;;
30462;SDS011;17256;43.618;25.336;2023-07-02T01:25:06;6.03;;;5.53;;
30462;SDS011;17256;43.618;25.336;2023-07-02T01:27:35;6.17;;;5.57;;
30462;SDS011;17256;43.618;25.336;2023-07-02T01:30:05;7.03;;;5.83;;
30462;SDS011;17256;43.618;25.336;2023-07-02T01:32:37;8.93;;;7.37;;
30462;SDS011;17256;43.618;25.336;2023-07-02T01:35:06;9.43;;;6.73;;
30462;SDS011;17256;43.618;25.336;2023-07-02T01:37:34;11.03;;;6.23;;
30462;SDS011;17256;43.618;25.336;2023-07-02T01:40:03;10.97;;;6.10;;
30462;SDS011;17256;43.618;25.336;2023-07-02T01:42:35;8.53;;;6.00;;
30462;SDS011;17256;43.618;25.336;2023-07-02T01:45:09;6.37;;;5.43;;
30462;SDS011;17256;43.618;25.336;2023-07-02T01:47:36;7.33;;;5.43;;
30462;SDS011;17256;43.618;25.336;2023-07-02T01:50:05;8.63;;;5.27;;
30462;SDS011;17256;43.618;25.336;2023-07-02T01:52:36;6.27;;;5.27;;
30462;SDS011;17256;43.618;25.336;2023-07-02T01:55:04;7.60;;;5.67;;
30462;SDS011;17256;43.618;25.336;2023-07-02T01:57:31;5.27;;;4.77;;
30462;SDS011;17256;43.618;25.336;2023-07-02T02:00:00;5.97;;;5.13;;
30462;SDS011;17256;43.618;25.336;2023-07-02T02:02:29;6.07;;;5.47;;
30462;SDS011;17256;43.618;25.336;2023-07-02T02:05:00;5.10;;;4.60;;
30462;SDS011;17256;43.618;25.336;2023-07-02T02:10:38;5.50;;;4.70;;
30462;SDS011;17256;43.618;25.336;2023-07-02T02:13:10;6.97;;;5.17;;
30462;SDS011;17256;43.618;25.336;2023-07-02T02:15:46;7.13;;;5.17;;
30462;SDS011;17256;43.618;25.336;2023-07-02T02:18:14;6.77;;;5.43;;
30462;SDS011;17256;43.618;25.336;2023-07-02T02:20:42;5.90;;;5.40;;
30462;SDS011;17256;43.618;25.336;2023-07-02T02:23:12;8.40;;;5.57;;
30462;SDS011;17256;43.618;25.336;2023-07-02T02:28:59;6.30;;;5.40;;
30462;SDS011;17256;43.618;25.336;2023-07-02T02:31:30;6.50;;;5.07;;
30462;SDS011;17256;43.618;25.336;2023-07-02T02:37:15;6.57;;;5.07;;
30462;SDS011;17256;43.618;25.336;2023-07-02T02:43:04;6.07;;;5.40;;
30462;SDS011;17256;43.618;25.336;2023-07-02T02:49:26;6.27;;;5.70;;
30462;SDS011;17256;43.618;25.336;2023-07-02T02:51:58;7.00;;;5.30;;
30462;SDS011;17256;43.618;25.336;2023-07-02T03:10:45;5.80;;;5.00;;
30462;SDS011;17256;43.618;25.336;2023-07-02T04:41:28;6.10;;;5.60;;
30462;SDS011;17256;43.618;25.336;2023-07-02T05:04:45;7.73;;;6.60;;
30462;SDS011;17256;43.618;25.336;2023-07-02T05:07:15;8.03;;;7.27;;
30462;SDS011;17256;43.618;25.336;2023-07-02T05:09:45;9.80;;;7.93;;
30462;SDS011;17256;43.618;25.336;2023-07-02T05:12:19;8.27;;;7.53;;
30462;SDS011;17256;43.618;25.336;2023-07-02T05:15:00;7.77;;;6.97;;
30462;SDS011;17256;43.618;25.336;2023-07-02T05:17:37;8.77;;;7.90;;
30462;SDS011;17256;43.618;25.336;2023-07-02T05:20:16;7.97;;;7.27;;
30462;SDS011;17256;43.618;25.336;2023-07-02T05:23:01;8.40;;;6.90;;
30462;SDS011;17256;43.618;25.336;2023-07-02T06:29:05;7.70;;;6.90;;
30462;SDS011;17256;43.618;25.336;2023-07-02T06:31:37;7.47;;;6.87;;
30462;SDS011;17256;43.618;25.336;2023-07-02T06:37:24;7.70;;;6.97;;
30462;SDS011;17256;43.618;25.336;2023-07-02T06:39:59;7.67;;;6.97;;
30462;SDS011;17256;43.618;25.336;2023-07-02T06:42:36;8.93;;;7.30;;
30462;SDS011;17256;43.618;25.336;2023-07-02T06:45:38;8.30;;;6.90;;
30462;SDS011;17256;43.618;25.336;2023-07-02T06:48:40;8.67;;;7.57;;
30462;SDS011;17256;43.618;25.336;2023-07-02T06:51:18;9.13;;;6.97;;
30462;SDS011;17256;43.618;25.336;2023-07-02T06:54:04;8.03;;;6.97;;
30462;SDS011;17256;43.618;25.336;2023-07-02T06:56:34;9.83;;;6.97;;
30462;SDS011;17256;43.618;25.336;2023-07-02T06:59:11;8.10;;;7.30;;
30462;SDS011;17256;43.618;25.336;2023-07-02T07:04:28;7.10;;;6.40;;
30462;SDS011;17256;43.618;25.336;2023-07-02T07:07:41;8.83;;;7.10;;
30462;SDS011;17256;43.618;25.336;2023-07-02T07:11:05;7.30;;;6.60;;
30462;SDS011;17256;43.618;25.336;2023-07-02T07:14:10;9.13;;;7.20;;
30462;SDS011;17256;43.618;25.336;2023-07-02T07:17:14;7.47;;;6.70;;
30462;SDS011;17256;43.618;25.336;2023-07-02T07:20:13;12.03;;;6.90;;
30462;SDS011;17256;43.618;25.336;2023-07-02T07:29:05;7.27;;;6.60;;
30462;SDS011;17256;43.618;25.336;2023-07-02T07:31:38;7.83;;;7.03;;
30462;SDS011;17256;43.618;25.336;2023-07-02T07:34:19;9.20;;;7.20;;
30462;SDS011;17256;43.618;25.336;2023-07-02T07:37:20;8.30;;;6.73;;
30462;SDS011;17256;43.618;25.336;2023-07-02T07:43:18;8.50;;;7.60;;
30462;SDS011;17256;43.618;25.336;2023-07-02T08:06:05;9.63;;;7.37;;
30462;SDS011;17256;43.618;25.336;2023-07-02T09:02:01;9.40;;;7.57;;
30462;SDS011;17256;43.618;25.336;2023-07-02T09:05:57;9.07;;;7.97;;
30462;SDS011;17256;43.618;25.336;2023-07-02T09:09:13;7.87;;;7.20;;
30462;SDS011;17256;43.618;25.336;2023-07-02T09:23:33;9.50;;;8.60;;
30462;SDS011;17256;43.618;25.336;2023-07-02T09:27:43;9.00;;;8.13;;
30462;SDS011;17256;43.618;25.336;2023-07-02T09:34:54;8.57;;;7.70;;
30462;SDS011;17256;43.618;25.336;2023-07-02T09:37:38;8.53;;;7.63;;
30462;SDS011;17256;43.618;25.336;2023-07-02T09:41:18;9.10;;;8.20;;
30462;SDS011;17256;43.618;25.336;2023-07-02T09:50:58;9.50;;;8.60;;
30462;SDS011;17256;43.618;25.336;2023-07-02T09:53:26;10.00;;;7.30;;
30462;SDS011;17256;43.618;25.336;2023-07-02T09:55:53;8.30;;;7.60;;
30462;SDS011;17256;43.618;25.336;2023-07-02T09:58:19;8.50;;;7.73;;
30462;SDS011;17256;43.618;25.336;2023-07-02T10:00:44;6.83;;;6.23;;
30462;SDS011;17256;43.618;25.336;2023-07-02T10:03:10;7.60;;;6.93;;
30462;SDS011;17256;43.618;25.336;2023-07-02T10:05:35;7.20;;;6.47;;
30462;SDS011;17256;43.618;25.336;2023-07-02T10:08:13;6.37;;;5.87;;
30462;SDS011;17256;43.618;25.336;2023-07-02T10:10:40;5.97;;;5.37;;
30462;SDS011;17256;43.618;25.336;2023-07-02T10:13:06;6.63;;;6.03;;
30462;SDS011;17256;43.618;25.336;2023-07-02T10:15:33;7.73;;;5.20;;
30462;SDS011;17256;43.618;25.336;2023-07-02T10:18:03;6.07;;;5.57;;
30462;SDS011;17256;43.618;25.336;2023-07-02T10:20:36;5.50;;;5.00;;
30462;SDS011;17256;43.618;25.336;2023-07-02T10:23:05;5.90;;;5.37;;
30462;SDS011;17256;43.618;25.336;2023-07-02T10:25:32;6.60;;;6.00;;
30462;SDS011;17256;43.618;25.336;2023-07-02T10:28:14;7.27;;;6.00;;
30462;SDS011;17256;43.618;25.336;2023-07-02T10:30:52;5.13;;;4.73;;
30462;SDS011;17256;43.618;25.336;2023-07-02T10:33:18;5.27;;;4.47;;
30462;SDS011;17256;43.618;25.336;2023-07-02T10:35:45;4.77;;;4.37;;
30462;SDS011;17256;43.618;25.336;2023-07-02T10:38:14;4.93;;;4.53;;
30462;SDS011;17256;43.618;25.336;2023-07-02T10:40:45;8.37;;;6.33;;
30462;SDS011;17256;43.618;25.336;2023-07-02T10:43:11;6.63;;;5.23;;
30462;SDS011;17256;43.618;25.336;2023-07-02T10:45:37;5.70;;;5.10;;
30462;SDS011;17256;43.618;25.336;2023-07-02T10:48:03;4.27;;;3.87;;
30462;SDS011;17256;43.618;25.336;2023-07-02T10:50:30;4.33;;;4.00;;
30462;SDS011;17256;43.618;25.336;2023-07-02T10:52:57;4.90;;;4.47;;
30462;SDS011;17256;43.618;25.336;2023-07-02T10:55:24;5.47;;;5.03;;
30462;SDS011;17256;43.618;25.336;2023-07-02T10:57:50;8.20;;;5.63;;
30462;SDS011;17256;43.618;25.336;2023-07-02T11:00:26;6.90;;;6.30;;
30462;SDS011;17256;43.618;25.336;2023-07-02T11:02:53;7.47;;;6.73;;
30462;SDS011;17256;43.618;25.336;2023-07-02T11:05:19;7.53;;;6.83;;
30462;SDS011;17256;43.618;25.336;2023-07-02T11:07:45;7.33;;;6.50;;
30462;SDS011;17256;43.618;25.336;2023-07-02T11:10:16;6.87;;;6.27;;
30462;SDS011;17256;43.618;25.336;2023-07-02T11:12:43;6.40;;;5.83;;
30462;SDS011;17256;43.618;25.336;2023-07-02T11:15:13;6.30;;;5.70;;
30462;SDS011;17256;43.618;25.336;2023-07-02T11:17:40;6.37;;;5.87;;
30462;SDS011;17256;43.618;25.336;2023-07-02T11:20:10;6.83;;;6.17;;
30462;SDS011;17256;43.618;25.336;2023-07-02T11:22:37;8.53;;;6.33;;
30462;SDS011;17256;43.618;25.336;2023-07-02T11:25:13;6.90;;;6.20;;
30462;SDS011;17256;43.618;25.336;2023-07-02T11:27:43;6.40;;;5.87;;
30462;SDS011;17256;43.618;25.336;2023-07-02T11:30:09;8.47;;;6.80;;
30462;SDS011;17256;43.618;25.336;2023-07-02T11:32:55;7.40;;;6.60;;
30462;SDS011;17256;43.618;25.336;2023-07-02T11:35:21;6.73;;;5.93;;
30462;SDS011;17256;43.618;25.336;2023-07-02T11:37:58;7.40;;;6.17;;
30462;SDS011;17256;43.618;25.336;2023-07-02T11:40:24;6.60;;;5.13;;
30462;SDS011;17256;43.618;25.336;2023-07-02T11:42:50;6.03;;;5.43;;
30462;SDS011;17256;43.618;25.336;2023-07-02T11:45:16;7.17;;;5.03;;
30462;SDS011;17256;43.618;25.336;2023-07-02T11:47:41;5.33;;;4.53;;
30462;SDS011;17256;43.618;25.336;2023-07-02T11:50:07;4.13;;;3.73;;
30462;SDS011;17256;43.618;25.336;2023-07-02T11:52:33;5.37;;;4.23;;
30462;SDS011;17256;43.618;25.336;2023-07-02T11:54:58;5.20;;;4.70;;
30462;SDS011;17256;43.618;25.336;2023-07-02T11:57:24;6.53;;;4.83;;
30462;SDS011;17256;43.618;25.336;2023-07-02T11:59:49;5.33;;;4.90;;
30462;SDS011;17256;43.618;25.336;2023-07-02T12:02:17;4.90;;;4.50;;
30462;SDS011;17256;43.618;25.336;2023-07-02T12:04:43;5.57;;;5.13;;
30462;SDS011;17256;43.618;25.336;2023-07-02T12:07:09;5.80;;;5.23;;
30462;SDS011;17256;43.618;25.336;2023-07-02T12:09:35;5.23;;;4.83;;
30462;SDS011;17256;43.618;25.336;2023-07-02T12:12:01;5.90;;;5.40;;
30462;SDS011;17256;43.618;25.336;2023-07-02T12:14:27;5.00;;;4.50;;
30462;SDS011;17256;43.618;25.336;2023-07-02T12:16:52;5.93;;;4.77;;
30462;SDS011;17256;43.618;25.336;2023-07-02T12:19:18;5.97;;;5.50;;
30462;SDS011;17256;43.618;25.336;2023-07-02T12:21:43;5.37;;;4.97;;
30462;SDS011;17256;43.618;25.336;2023-07-02T12:24:09;5.40;;;4.97;;
30462;SDS011;17256;43.618;25.336;2023-07-02T12:26:36;6.03;;;4.87;;
30462;SDS011;17256;43.618;25.336;2023-07-02T12:29:02;5.43;;;4.77;;
30462;SDS011;17256;43.618;25.336;2023-07-02T12:31:29;4.93;;;4.47;;
30462;SDS011;17256;43.618;25.336;2023-07-02T12:33:56;6.00;;;5.23;;
30462;SDS011;17256;43.618;25.336;2023-07-02T12:36:22;5.87;;;5.37;;
30462;SDS011;17256;43.618;25.336;2023-07-02T12:38:48;6.13;;;4.90;;
30462;SDS011;17256;43.618;25.336;2023-07-02T12:41:14;5.23;;;4.73;;
30462;SDS011;17256;43.618;25.336;2023-07-02T12:43:39;5.33;;;4.83;;
30462;SDS011;17256;43.618;25.336;2023-07-02T12:46:06;4.80;;;4.40;;
30462;SDS011;17256;43.618;25.336;2023-07-02T12:48:31;5.63;;;4.93;;
30462;SDS011;17256;43.618;25.336;2023-07-02T12:50:58;7.60;;;5.37;;
30462;SDS011;17256;43.618;25.336;2023-07-02T12:53:25;5.07;;;4.57;;
30462;SDS011;17256;43.618;25.336;2023-07-02T12:55:51;5.80;;;4.57;;
30462;SDS011;17256;43.618;25.336;2023-07-02T12:58:16;5.37;;;4.90;;
30462;SDS011;17256;43.618;25.336;2023-07-02T13:00:42;5.47;;;5.03;;
30462;SDS011;17256;43.618;25.336;2023-07-02T13:03:11;6.33;;;4.63;;
30462;SDS011;17256;43.618;25.336;2023-07-02T13:05:37;5.63;;;5.13;;
30462;SDS011;17256;43.618;25.336;2023-07-02T13:08:04;5.37;;;4.27;;
30462;SDS011;17256;43.618;25.336;2023-07-02T13:10:30;5.07;;;4.47;;
30462;SDS011;17256;43.618;25.336;2023-07-02T13:12:56;5.20;;;4.67;;
30462;SDS011;17256;43.618;25.336;2023-07-02T13:15:22;4.97;;;4.23;;
30462;SDS011;17256;43.618;25.336;2023-07-02T13:17:47;4.10;;;3.73;;
30462;SDS011;17256;43.618;25.336;2023-07-02T13:20:13;4.77;;;4.37;;
30462;SDS011;17256;43.618;25.336;2023-07-02T13:22:39;5.03;;;4.63;;
30462;SDS011;17256;43.618;25.336;2023-07-02T13:25:05;5.47;;;4.97;;
30462;SDS011;17256;43.618;25.336;2023-07-02T13:27:31;5.90;;;4.80;;
30462;SDS011;17256;43.618;25.336;2023-07-02T13:29:57;6.23;;;4.67;;
30462;SDS011;17256;43.618;25.336;2023-07-02T13:32:23;5.33;;;4.63;;
30462;SDS011;17256;43.618;25.336;2023-07-02T13:34:49;4.93;;;3.97;;
30462;SDS011;17256;43.618;25.336;2023-07-02T13:37:14;4.40;;;4.00;;
30462;SDS011;17256;43.618;25.336;2023-07-02T13:39:43;5.57;;;4.60;;
30462;SDS011;17256;43.618;25.336;2023-07-02T13:42:13;4.63;;;4.17;;
30462;SDS011;17256;43.618;25.336;2023-07-02T13:44:39;5.70;;;4.37;;
30462;SDS011;17256;43.618;25.336;2023-07-02T13:47:04;5.17;;;4.63;;
30462;SDS011;17256;43.618;25.336;2023-07-02T13:49:31;4.23;;;3.93;;
30462;SDS011;17256;43.618;25.336;2023-07-02T13:51:57;4.83;;;4.23;;
30462;SDS011;17256;43.618;25.336;2023-07-02T13:54:23;4.30;;;3.70;;
30462;SDS011;17256;43.618;25.336;2023-07-02T13:56:49;4.97;;;4.47;;
30462;SDS011;17256;43.618;25.336;2023-07-02T13:59:15;5.67;;;4.90;;
30462;SDS011;17256;43.618;25.336;2023-07-02T14:01:42;5.07;;;4.17;;
30462;SDS011;17256;43.618;25.336;2023-07-02T14:04:09;5.83;;;4.77;;
30462;SDS011;17256;43.618;25.336;2023-07-02T14:06:34;4.93;;;4.43;;
30462;SDS011;17256;43.618;25.336;2023-07-02T14:09:00;5.47;;;4.97;;
30462;SDS011;17256;43.618;25.336;2023-07-02T14:11:26;6.00;;;5.00;;
30462;SDS011;17256;43.618;25.336;2023-07-02T14:13:53;5.80;;;5.17;;
30462;SDS011;17256;43.618;25.336;2023-07-02T14:16:19;5.87;;;5.30;;
30462;SDS011;17256;43.618;25.336;2023-07-02T14:18:44;5.63;;;4.80;;
30462;SDS011;17256;43.618;25.336;2023-07-02T14:21:10;5.63;;;5.13;;
30462;SDS011;17256;43.618;25.336;2023-07-02T14:23:36;6.23;;;4.83;;
30462;SDS011;17256;43.618;25.336;2023-07-02T14:26:02;5.53;;;4.43;;
30462;SDS011;17256;43.618;25.336;2023-07-02T14:28:27;6.20;;;5.53;;
30462;SDS011;17256;43.618;25.336;2023-07-02T14:30:58;5.80;;;5.30;;
30462;SDS011;17256;43.618;25.336;2023-07-02T14:33:25;5.63;;;5.23;;
30462;SDS011;17256;43.618;25.336;2023-07-02T14:35:52;5.63;;;5.03;;
30462;SDS011;17256;43.618;25.336;2023-07-02T14:38:18;6.40;;;5.80;;
30462;SDS011;17256;43.618;25.336;2023-07-02T14:40:43;5.50;;;5.00;;
30462;SDS011;17256;43.618;25.336;2023-07-02T14:43:09;6.73;;;4.87;;
30462;SDS011;17256;43.618;25.336;2023-07-02T14:45:34;5.73;;;5.23;;
30462;SDS011;17256;43.618;25.336;2023-07-02T14:48:00;5.90;;;4.93;;
30462;SDS011;17256;43.618;25.336;2023-07-02T14:50:26;4.70;;;4.30;;
30462;SDS011;17256;43.618;25.336;2023-07-02T14:52:52;5.83;;;5.23;;
30462;SDS011;17256;43.618;25.336;2023-07-02T14:55:18;8.53;;;7.00;;
30462;SDS011;17256;43.618;25.336;2023-07-02T14:57:43;7.23;;;5.70;;
30462;SDS011;17256;43.618;25.336;2023-07-02T15:00:09;6.60;;;5.70;;
30462;SDS011;17256;43.618;25.336;2023-07-02T15:02:35;6.67;;;5.77;;
30462;SDS011;17256;43.618;25.336;2023-07-02T15:05:01;7.97;;;7.17;;
30462;SDS011;17256;43.618;25.336;2023-07-02T15:07:28;7.90;;;7.10;;
30462;SDS011;17256;43.618;25.336;2023-07-02T15:09:53;7.30;;;6.60;;
30462;SDS011;17256;43.618;25.336;2023-07-02T15:12:19;7.47;;;6.67;;
30462;SDS011;17256;43.618;25.336;2023-07-02T15:14:45;6.87;;;5.80;;
30462;SDS011;17256;43.618;25.336;2023-07-02T15:17:10;9.67;;;5.57;;
30462;SDS011;17256;43.618;25.336;2023-07-02T15:19:36;6.30;;;5.70;;
30462;SDS011;17256;43.618;25.336;2023-07-02T15:22:01;5.97;;;5.37;;
30462;SDS011;17256;43.618;25.336;2023-07-02T15:24:27;9.57;;;7.53;;
30462;SDS011;17256;43.618;25.336;2023-07-02T15:26:53;7.40;;;6.70;;
30462;SDS011;17256;43.618;25.336;2023-07-02T15:29:18;8.77;;;6.27;;
30462;SDS011;17256;43.618;25.336;2023-07-02T15:31:44;6.80;;;5.83;;
30462;SDS011;17256;43.618;25.336;2023-07-02T15:34:11;6.77;;;6.13;;
30462;SDS011;17256;43.618;25.336;2023-07-02T15:36:41;7.60;;;6.33;;
30462;SDS011;17256;43.618;25.336;2023-07-02T15:39:07;6.67;;;5.97;;
30462;SDS011;17256;43.618;25.336;2023-07-02T15:41:33;7.87;;;5.70;;
30462;SDS011;17256;43.618;25.336;2023-07-02T15:43:59;8.30;;;6.47;;
30462;SDS011;17256;43.618;25.336;2023-07-02T15:46:28;10.90;;;6.30;;
30462;SDS011;17256;43.618;25.336;2023-07-02T15:48:54;7.53;;;5.60;;
30462;SDS011;17256;43.618;25.336;2023-07-02T15:51:20;7.07;;;5.87;;
30462;SDS011;17256;43.618;25.336;2023-07-02T15:53:45;6.83;;;5.77;;
30462;SDS011;17256;43.618;25.336;2023-07-02T15:56:11;8.27;;;5.93;;
30462;SDS011;17256;43.618;25.336;2023-07-02T15:58:36;7.33;;;5.60;;
30462;SDS011;17256;43.618;25.336;2023-07-02T16:01:09;7.77;;;7.00;;
30462;SDS011;17256;43.618;25.336;2023-07-02T16:03:39;7.80;;;5.97;;
30462;SDS011;17256;43.618;25.336;2023-07-02T16:06:06;6.57;;;5.97;;
30462;SDS011;17256;43.618;25.336;2023-07-02T16:08:33;6.93;;;6.23;;
30462;SDS011;17256;43.618;25.336;2023-07-02T16:10:58;6.50;;;5.73;;
30462;SDS011;17256;43.618;25.336;2023-07-02T16:13:24;7.73;;;6.03;;
30462;SDS011;17256;43.618;25.336;2023-07-02T16:15:49;7.67;;;6.03;;
30462;SDS011;17256;43.618;25.336;2023-07-02T16:18:15;8.60;;;7.03;;
30462;SDS011;17256;43.618;25.336;2023-07-02T16:20:40;7.13;;;6.43;;
30462;SDS011;17256;43.618;25.336;2023-07-02T16:23:06;7.43;;;6.43;;
30462;SDS011;17256;43.618;25.336;2023-07-02T16:25:33;6.97;;;5.40;;
30462;SDS011;17256;43.618;25.336;2023-07-02T16:27:59;11.30;;;6.93;;
30462;SDS011;17256;43.618;25.336;2023-07-02T16:30:24;9.10;;;5.73;;
30462;SDS011;17256;43.618;25.336;2023-07-02T16:32:50;6.53;;;5.93;;
30462;SDS011;17256;43.618;25.336;2023-07-02T16:35:16;7.17;;;6.17;;
30462;SDS011;17256;43.618;25.336;2023-07-02T16:37:42;7.03;;;6.33;;
30462;SDS011;17256;43.618;25.336;2023-07-02T16:40:09;6.97;;;6.23;;
30462;SDS011;17256;43.618;25.336;2023-07-02T16:42:35;7.30;;;5.53;;
30462;SDS011;17256;43.618;25.336;2023-07-02T16:45:01;10.17;;;6.03;;
30462;SDS011;17256;43.618;25.336;2023-07-02T16:47:31;6.00;;;5.10;;
30462;SDS011;17256;43.618;25.336;2023-07-02T16:50:02;6.97;;;5.90;;
30462;SDS011;17256;43.618;25.336;2023-07-02T16:52:28;6.23;;;5.63;;
30462;SDS011;17256;43.618;25.336;2023-07-02T16:54:53;7.30;;;5.47;;
30462;SDS011;17256;43.618;25.336;2023-07-02T16:57:19;9.20;;;6.40;;
30462;SDS011;17256;43.618;25.336;2023-07-02T16:59:44;6.90;;;5.40;;
30462;SDS011;17256;43.618;25.336;2023-07-02T17:02:10;5.87;;;5.37;;
30462;SDS011;17256;43.618;25.336;2023-07-02T17:04:36;7.70;;;6.30;;
30462;SDS011;17256;43.618;25.336;2023-07-02T17:07:02;6.27;;;4.67;;
30462;SDS011;17256;43.618;25.336;2023-07-02T17:09:29;7.07;;;5.27;;
30462;SDS011;17256;43.618;25.336;2023-07-02T17:12:04;6.13;;;5.53;;
30462;SDS011;17256;43.618;25.336;2023-07-02T17:14:32;6.33;;;5.53;;
30462;SDS011;17256;43.618;25.336;2023-07-02T17:17:03;6.67;;;6.00;;
30462;SDS011;17256;43.618;25.336;2023-07-02T17:19:31;6.67;;;6.00;;
30462;SDS011;17256;43.618;25.336;2023-07-02T17:21:59;7.27;;;5.80;;
30462;SDS011;17256;43.618;25.336;2023-07-02T17:24:30;7.13;;;5.70;;
30462;SDS011;17256;43.618;25.336;2023-07-02T17:26:57;8.77;;;6.93;;
30462;SDS011;17256;43.618;25.336;2023-07-02T17:29:24;7.57;;;6.63;;
30462;SDS011;17256;43.618;25.336;2023-07-02T17:31:50;6.00;;;5.40;;
30462;SDS011;17256;43.618;25.336;2023-07-02T17:34:22;7.33;;;5.83;;
30462;SDS011;17256;43.618;25.336;2023-07-02T17:36:49;6.40;;;5.67;;
30462;SDS011;17256;43.618;25.336;2023-07-02T17:39:17;10.07;;;5.83;;
30462;SDS011;17256;43.618;25.336;2023-07-02T17:41:44;6.67;;;5.57;;
30462;SDS011;17256;43.618;25.336;2023-07-02T17:44:11;6.00;;;5.40;;
30462;SDS011;17256;43.618;25.336;2023-07-02T17:46:36;7.60;;;6.13;;
30462;SDS011;17256;43.618;25.336;2023-07-02T17:49:03;6.57;;;5.80;;
30462;SDS011;17256;43.618;25.336;2023-07-02T17:51:28;7.27;;;6.07;;
30462;SDS011;17256;43.618;25.336;2023-07-02T17:54:00;9.57;;;6.50;;
30462;SDS011;17256;43.618;25.336;2023-07-02T17:56:27;7.17;;;6.17;;
30462;SDS011;17256;43.618;25.336;2023-07-02T17:58:52;9.00;;;5.83;;
30462;SDS011;17256;43.618;25.336;2023-07-02T18:01:19;6.67;;;5.83;;
30462;SDS011;17256;43.618;25.336;2023-07-02T18:03:46;6.37;;;5.60;;
30462;SDS011;17256;43.618;25.336;2023-07-02T18:06:14;8.60;;;6.67;;
30462;SDS011;17256;43.618;25.336;2023-07-02T18:08:40;8.70;;;5.77;;
30462;SDS011;17256;43.618;25.336;2023-07-02T19:37:57;8.87;;;6.57;;
30462;SDS011;17256;43.618;25.336;2023-07-02T19:40:25;10.50;;;7.13;;
30462;SDS011;17256;43.618;25.336;2023-07-02T19:46:03;8.43;;;6.07;;
30462;SDS011;17256;43.618;25.336;2023-07-02T19:49:16;7.13;;;5.90;;
30462;SDS011;17256;43.618;25.336;2023-07-02T19:55:11;7.30;;;6.27;;
30462;SDS011;17256;43.618;25.336;2023-07-02T19:59:28;8.27;;;6.33;;
30462;SDS011;17256;43.618;25.336;2023-07-02T20:14:16;11.73;;;6.77;;
30462;SDS011;17256;43.618;25.336;2023-07-02T20:17:09;9.10;;;6.73;;
30462;SDS011;17256;43.618;25.336;2023-07-02T20:22:57;9.20;;;5.83;;
30462;SDS011;17256;43.618;25.336;2023-07-02T20:25:38;8.73;;;7.07;;
30462;SDS011;17256;43.618;25.336;2023-07-02T20:28:57;8.90;;;6.73;;
30462;SDS011;17256;43.618;25.336;2023-07-02T20:31:33;9.70;;;7.27;;
30462;SDS011;17256;43.618;25.336;2023-07-02T20:34:06;8.90;;;6.90;;
30462;SDS011;17256;43.618;25.336;2023-07-02T20:36:54;8.90;;;6.83;;
30462;SDS011;17256;43.618;25.336;2023-07-02T20:39:29;7.73;;;6.60;;
30462;SDS011;17256;43.618;25.336;2023-07-02T20:42:05;8.23;;;6.23;;
30462;SDS011;17256;43.618;25.336;2023-07-02T20:44:53;8.60;;;7.77;;
30462;SDS011;17256;43.618;25.336;2023-07-02T20:47:53;9.70;;;7.07;;
30462;SDS011;17256;43.618;25.336;2023-07-02T20:53:12;7.50;;;6.63;;
30462;SDS011;17256;43.618;25.336;2023-07-02T20:55:40;7.90;;;7.10;;
30462;SDS011;17256;43.618;25.336;2023-07-02T20:58:09;8.30;;;6.63;;
30462;SDS011;17256;43.618;25.336;2023-07-02T21:00:42;6.73;;;6.00;;
30462;SDS011;17256;43.618;25.336;2023-07-02T21:03:11;8.43;;;7.63;;
30462;SDS011;17256;43.618;25.336;2023-07-02T21:05:40;8.20;;;6.70;;
30462;SDS011;17256;43.618;25.336;2023-07-02T21:08:10;8.97;;;6.80;;
30462;SDS011;17256;43.618;25.336;2023-07-02T21:10:55;9.23;;;6.97;;
30462;SDS011;17256;43.618;25.336;2023-07-02T21:13:35;8.60;;;7.07;;
30462;SDS011;17256;43.618;25.336;2023-07-02T21:17:06;13.70;;;7.17;;
30462;SDS011;17256;43.618;25.336;2023-07-02T21:20:14;7.80;;;7.03;;
30462;SDS011;17256;43.618;25.336;2023-07-02T21:22:54;7.83;;;7.03;;
30462;SDS011;17256;43.618;25.336;2023-07-02T21:26:18;12.77;;;7.97;;
30462;SDS011;17256;43.618;25.336;2023-07-02T21:28:54;9.00;;;6.97;;
30462;SDS011;17256;43.618;25.336;2023-07-02T21:31:32;9.37;;;7.57;;
30462;SDS011;17256;43.618;25.336;2023-07-02T21:34:06;8.37;;;7.27;;
30462;SDS011;17256;43.618;25.336;2023-07-02T21:36:33;9.63;;;7.63;;
30462;SDS011;17256;43.618;25.336;2023-07-02T21:39:01;8.67;;;7.20;;
30462;SDS011;17256;43.618;25.336;2023-07-02T21:41:29;10.10;;;7.90;;
30462;SDS011;17256;43.618;25.336;2023-07-02T21:43:57;8.23;;;7.33;;
30462;SDS011;17256;43.618;25.336;2023-07-02T21:46:30;8.00;;;7.20;;
30462;SDS011;17256;43.618;25.336;2023-07-02T21:49:14;9.60;;;8.20;;
30462;SDS011;17256;43.618;25.336;2023-07-02T21:51:42;9.30;;;7.70;;
30462;SDS011;17256;43.618;25.336;2023-07-02T21:54:11;8.07;;;7.23;;
30462;SDS011;17256;43.618;25.336;2023-07-02T21:56:39;9.27;;;7.87;;
30462;SDS011;17256;43.618;25.336;2023-07-02T21:59:08;8.60;;;6.57;;
30462;SDS011;17256;43.618;25.336;2023-07-02T22:01:37;10.07;;;7.87;;
30462;SDS011;17256;43.618;25.336;2023-07-02T22:04:06;9.23;;;7.87;;
30462;SDS011;17256;43.618;25.336;2023-07-02T22:06:49;7.77;;;6.97;;
30462;SDS011;17256;43.618;25.336;2023-07-02T22:09:18;8.70;;;7.60;;
30462;SDS011;17256;43.618;25.336;2023-07-02T22:11:48;9.10;;;7.30;;
30462;SDS011;17256;43.618;25.336;2023-07-02T22:14:18;7.80;;;6.77;;
30462;SDS011;17256;43.618;25.336;2023-07-02T22:16:46;7.70;;;6.50;;
30462;SDS011;17256;43.618;25.336;2023-07-02T22:19:15;9.43;;;7.83;;
30462;SDS011;17256;43.618;25.336;2023-07-02T22:21:43;8.63;;;7.70;;
30462;SDS011;17256;43.618;25.336;2023-07-02T22:24:12;10.30;;;7.93;;
30462;SDS011;17256;43.618;25.336;2023-07-02T22:26:39;10.27;;;6.73;;
30462;SDS011;17256;43.618;25.336;2023-07-02T22:29:10;11.33;;;7.90;;
30462;SDS011;17256;43.618;25.336;2023-07-02T22:31:38;10.87;;;8.43;;
30462;SDS011;17256;43.618;25.336;2023-07-02T22:34:10;8.90;;;8.00;;
30462;SDS011;17256;43.618;25.336;2023-07-02T22:36:38;10.60;;;8.40;;